createdAt,value
2018-11-26T00:00:17.477Z,28.42
2018-11-26T00:02:45.555Z,31.60
2018-11-26T00:05:13.620Z,26.73
2018-11-26T00:07:41.688Z,22.22
2018-11-26T00:10:21.112Z,22.52
2018-11-26T00:12:49.176Z,23.83
2018-11-26T00:15:17.232Z,26.00
2018-11-26T00:17:45.354Z,24.30
2018-11-26T00:20:13.396Z,26.07
2018-11-26T00:22:41.448Z,24.20
2018-11-26T00:25:09.196Z,26.00
2018-11-26T00:27:37.309Z,27.40
2018-11-26T00:30:06.596Z,24.17
2018-11-26T00:32:34.673Z,23.87
2018-11-26T00:35:02.768Z,18.60
2018-11-26T00:37:30.832Z,23.93
2018-11-26T00:39:58.920Z,24.83
2018-11-26T00:42:26.984Z,23.77
2018-11-26T00:44:55.078Z,25.10
2018-11-26T00:47:23.137Z,24.27
2018-11-26T00:49:51.192Z,20.83
2018-11-26T00:52:19.292Z,23.90
2018-11-26T00:54:47.363Z,25.90
2018-11-26T00:57:15.429Z,23.45
2018-11-26T00:59:43.537Z,24.47
2018-11-26T01:02:19.954Z,21.93
2018-11-26T01:04:48.066Z,22.37
2018-11-26T01:07:16.197Z,23.20
2018-11-26T01:09:44.278Z,19.12
2018-11-26T01:12:12.396Z,26.57
2018-11-26T01:14:40.489Z,22.10
2018-11-26T01:17:08.582Z,23.05
2018-11-26T01:19:36.697Z,23.20
2018-11-26T01:22:04.810Z,21.80
2018-11-26T01:24:32.925Z,24.97
2018-11-26T01:27:01.021Z,19.15
2018-11-26T01:29:29.125Z,24.92
2018-11-26T01:31:57.195Z,21.87
2018-11-26T01:34:25.302Z,25.92
2018-11-26T01:36:53.419Z,20.97
2018-11-26T01:39:21.494Z,24.60
2018-11-26T01:41:49.597Z,22.00
2018-11-26T01:44:17.689Z,24.87
2018-11-26T01:46:45.815Z,22.37
2018-11-26T01:49:13.934Z,19.37
2018-11-26T01:51:42.058Z,22.40
2018-11-26T01:54:10.153Z,19.20
2018-11-26T01:56:38.277Z,20.60
2018-11-26T01:59:06.419Z,23.47
2018-11-26T02:01:34.545Z,20.27
2018-11-26T02:04:02.689Z,26.40
2018-11-26T02:06:30.819Z,22.83
2018-11-26T02:08:58.913Z,24.70
2018-11-26T02:11:27.022Z,23.97
2018-11-26T02:13:55.143Z,22.13
2018-11-26T02:16:23.250Z,20.70
2018-11-26T02:18:51.487Z,24.60
2018-11-26T02:21:19.566Z,28.83
2018-11-26T02:23:47.665Z,23.13
2018-11-26T02:26:15.766Z,21.33
2018-11-26T02:28:43.892Z,21.93
2018-11-26T02:31:12.006Z,25.23
2018-11-26T02:33:40.691Z,24.67
2018-11-26T02:36:08.787Z,29.05
2018-11-26T02:38:36.917Z,28.55
2018-11-26T02:41:05.427Z,28.65
2018-11-26T02:43:33.550Z,26.93
2018-11-26T02:46:01.654Z,31.80
2018-11-26T02:48:29.773Z,32.90
2018-11-26T02:50:57.976Z,26.33
2018-11-26T02:53:26.098Z,28.60
2018-11-26T02:55:54.213Z,23.13
2018-11-26T02:58:22.339Z,24.67
2018-11-26T03:00:50.477Z,27.33
2018-11-26T03:03:18.585Z,28.40
2018-11-26T03:05:46.697Z,24.20
2018-11-26T03:08:14.818Z,30.10
2018-11-26T03:10:42.953Z,32.40
2018-11-26T03:13:11.074Z,34.40
2018-11-26T03:15:39.214Z,28.23
2018-11-26T03:18:07.305Z,33.27
2018-11-26T03:20:35.378Z,31.23
2018-11-26T03:23:03.503Z,32.53
2018-11-26T03:25:31.610Z,39.50
2018-11-26T03:27:59.725Z,27.55
2018-11-26T03:30:27.866Z,34.10
2018-11-26T03:32:55.981Z,29.67
2018-11-26T03:35:24.086Z,32.58
2018-11-26T03:37:52.193Z,29.90
2018-11-26T03:40:20.282Z,37.00
2018-11-26T03:42:48.380Z,31.45
2018-11-26T03:45:17.564Z,32.28
2018-11-26T03:47:45.695Z,31.82
2018-11-26T03:50:14.379Z,31.97
2018-11-26T03:52:44.063Z,34.53
2018-11-26T03:55:12.366Z,38.23
2018-11-26T03:57:40.449Z,32.23
2018-11-26T04:00:11.970Z,32.27
2018-11-26T04:02:40.063Z,32.63
2018-11-26T04:05:09.053Z,30.00
2018-11-26T04:07:37.157Z,28.37
2018-11-26T04:10:07.254Z,28.53
2018-11-26T04:12:35.391Z,24.70
2018-11-26T04:15:03.485Z,25.33
2018-11-26T04:17:31.620Z,26.30
2018-11-26T04:19:59.719Z,26.67
2018-11-26T04:22:27.831Z,27.30
2018-11-26T04:24:55.925Z,25.47
2018-11-26T04:27:24.059Z,22.27
2018-11-26T04:29:52.162Z,27.87
2018-11-26T04:32:20.279Z,24.83
2018-11-26T04:34:48.408Z,23.37
2018-11-26T04:37:16.563Z,24.07
2018-11-26T04:39:44.666Z,26.67
2018-11-26T04:42:12.768Z,19.47
2018-11-26T04:44:40.915Z,21.83
2018-11-26T04:47:09.001Z,23.73
2018-11-26T04:49:37.168Z,23.57
2018-11-26T04:52:05.576Z,20.50
2018-11-26T04:54:33.664Z,23.52
2018-11-26T04:57:01.774Z,20.80
2018-11-26T04:59:29.889Z,20.13
2018-11-26T05:01:57.972Z,23.63
2018-11-26T05:04:26.115Z,18.03
2018-11-26T05:06:54.202Z,17.73
2018-11-26T05:09:22.308Z,17.77
2018-11-26T05:11:50.393Z,20.63
2018-11-26T05:14:18.566Z,14.98
2018-11-26T05:16:46.682Z,16.75
2018-11-26T05:19:14.786Z,17.27
2018-11-26T05:21:42.881Z,18.48
2018-11-26T05:24:11.000Z,15.43
2018-11-26T05:26:39.084Z,17.00
2018-11-26T05:29:07.173Z,16.80
2018-11-26T05:31:35.280Z,15.90
2018-11-26T05:34:03.372Z,14.03
2018-11-26T05:36:31.566Z,17.40
2018-11-26T05:38:59.654Z,15.60
2018-11-26T05:41:27.790Z,11.67
2018-11-26T05:43:56.107Z,13.05
2018-11-26T05:46:24.281Z,12.10
2018-11-26T05:48:52.416Z,15.77
2018-11-26T05:51:20.512Z,15.43
2018-11-26T05:53:48.610Z,10.48
2018-11-26T05:56:16.770Z,12.90
2018-11-26T05:58:44.882Z,12.93
2018-11-26T06:01:12.986Z,13.77
2018-11-26T06:03:41.917Z,12.35
2018-11-26T06:06:10.073Z,18.57
2018-11-26T06:08:38.157Z,10.80
2018-11-26T06:11:06.257Z,10.45
2018-11-26T06:13:34.358Z,13.35
2018-11-26T06:16:02.497Z,10.60
2018-11-26T06:18:30.611Z,12.00
2018-11-26T06:20:58.690Z,13.22
2018-11-26T06:23:26.834Z,12.03
2018-11-26T06:25:54.904Z,9.18
2018-11-26T06:28:23.047Z,13.75
2018-11-26T06:30:51.129Z,9.85
2018-11-26T06:33:19.242Z,10.40
2018-11-26T06:35:47.338Z,11.57
2018-11-26T06:38:15.434Z,11.40
2018-11-26T06:40:43.517Z,9.23
2018-11-26T06:43:11.614Z,9.70
2018-11-26T06:45:39.734Z,11.70
2018-11-26T06:48:07.840Z,12.03
2018-11-26T06:50:35.933Z,9.77
2018-11-26T06:53:04.072Z,9.43
2018-11-26T06:55:32.188Z,9.17
2018-11-26T06:58:00.270Z,8.80
2018-11-26T07:00:28.369Z,11.70
2018-11-26T07:02:56.490Z,10.70
2018-11-26T07:05:24.607Z,9.18
2018-11-26T07:07:52.773Z,7.70
2018-11-26T07:10:21.714Z,12.37
2018-11-26T07:12:49.858Z,11.43
2018-11-26T07:15:20.691Z,9.67
2018-11-26T07:17:49.589Z,9.28
2018-11-26T07:20:18.695Z,8.58
2018-11-26T07:22:46.789Z,8.63
2018-11-26T07:25:15.970Z,5.10
2018-11-26T07:27:45.282Z,12.90
2018-11-26T07:30:16.485Z,6.90
2018-11-26T07:32:44.729Z,6.80
2018-11-26T07:35:13.394Z,5.83
2018-11-26T07:37:41.611Z,5.73
2018-11-26T07:40:12.632Z,7.13
2018-11-26T07:42:43.164Z,5.90
2018-11-26T07:45:12.507Z,5.73
2018-11-26T07:47:41.340Z,11.70
2018-11-26T07:50:11.997Z,7.23
2018-11-26T07:52:40.118Z,9.20
2018-11-26T07:55:10.126Z,9.33
2018-11-26T07:57:38.958Z,6.85
2018-11-26T08:00:17.280Z,6.97
2018-11-26T08:02:45.623Z,5.80
2018-11-26T08:05:14.813Z,5.87
2018-11-26T08:07:42.949Z,6.97
2018-11-26T08:10:12.247Z,5.93
2018-11-26T08:12:40.491Z,7.20
2018-11-26T08:15:10.782Z,8.33
2018-11-26T08:17:38.878Z,6.15
2018-11-26T08:20:07.987Z,5.10
2018-11-26T08:22:36.130Z,8.30
2018-11-26T08:25:05.121Z,5.53
2018-11-26T08:27:33.240Z,4.67
2018-11-26T08:30:01.355Z,6.30
2018-11-26T08:32:34.000Z,6.07
2018-11-26T08:34:57.598Z,4.20
2018-11-26T08:37:31.207Z,5.67
2018-11-26T08:40:04.681Z,3.83
2018-11-26T08:43:06.871Z,4.33
2018-11-26T08:45:36.894Z,4.47
2018-11-26T08:48:10.314Z,5.03
2018-11-26T08:50:38.841Z,5.03
2018-11-26T08:53:06.935Z,4.17
2018-11-26T08:55:34.985Z,4.17
2018-11-26T08:58:03.102Z,6.35
2018-11-26T09:00:31.204Z,5.60
2018-11-26T09:03:03.288Z,3.33
2018-11-26T09:05:36.896Z,3.73
2018-11-26T09:08:05.016Z,4.13
2018-11-26T09:10:33.106Z,4.13
2018-11-26T09:13:01.213Z,7.10
2018-11-26T09:15:29.377Z,4.17
2018-11-26T09:17:57.515Z,4.83
2018-11-26T09:20:25.614Z,4.62
2018-11-26T09:22:53.721Z,4.63
2018-11-26T09:25:21.832Z,4.80
2018-11-26T09:27:49.949Z,4.92
2018-11-26T09:30:18.047Z,4.60
2018-11-26T09:32:46.147Z,4.92
2018-11-26T09:35:15.554Z,9.43
2018-11-26T09:37:43.646Z,3.87
2018-11-26T09:40:16.017Z,7.00
2018-11-26T09:42:45.046Z,4.55
2018-11-26T09:45:17.267Z,4.00
2018-11-26T09:47:45.542Z,4.00
2018-11-26T09:50:16.010Z,7.85
2018-11-26T09:52:44.118Z,5.67
2018-11-26T09:55:12.953Z,3.02
2018-11-26T09:57:41.171Z,4.03
2018-11-26T10:00:17.061Z,3.87
2018-11-26T10:02:46.319Z,5.70
2018-11-26T10:05:15.824Z,3.20
2018-11-26T10:07:43.942Z,3.33
2018-11-26T10:10:12.683Z,2.93
2018-11-26T10:12:41.430Z,3.70
2018-11-26T10:15:14.659Z,3.90
2018-11-26T10:17:42.788Z,3.42
2018-11-26T10:20:11.417Z,3.17
2018-11-26T10:22:39.622Z,6.37
2018-11-26T10:25:11.869Z,3.30
2018-11-26T10:27:40.134Z,5.07
2018-11-26T10:30:10.582Z,3.07
2018-11-26T10:32:39.042Z,4.65
2018-11-26T10:35:08.679Z,3.47
2018-11-26T10:37:36.865Z,3.00
2018-11-26T10:40:11.816Z,5.33
2018-11-26T10:42:39.909Z,2.43
2018-11-26T10:45:10.505Z,3.83
2018-11-26T10:47:38.609Z,3.07
2018-11-26T10:50:10.562Z,3.67
2018-11-26T10:52:38.671Z,2.58
2018-11-26T10:55:23.898Z,3.77
2018-11-26T10:57:52.550Z,4.35
2018-11-26T11:00:26.071Z,2.62
2018-11-26T11:02:54.170Z,4.15
2018-11-26T11:05:22.267Z,3.63
2018-11-26T11:07:50.367Z,2.73
2018-11-26T11:10:34.141Z,2.60
2018-11-26T11:13:02.261Z,2.20
2018-11-26T11:15:30.334Z,5.77
2018-11-26T11:17:58.408Z,2.60
2018-11-26T11:20:27.795Z,2.67
2018-11-26T11:22:55.906Z,1.40
2018-11-26T11:25:24.310Z,1.40
2018-11-26T11:27:52.652Z,2.65
2018-11-26T11:30:25.642Z,1.47
2018-11-26T11:32:53.753Z,1.00
2018-11-26T11:35:21.879Z,1.65
2018-11-26T11:37:50.783Z,3.53
2018-11-26T11:40:19.779Z,1.83
2018-11-26T11:42:48.088Z,1.70
2018-11-26T11:45:16.240Z,2.90
2018-11-26T11:47:44.405Z,1.20
2018-11-26T11:50:13.361Z,1.32
2018-11-26T11:52:41.499Z,1.20
2018-11-26T11:55:25.737Z,1.43
2018-11-26T11:57:53.891Z,3.55
2018-11-26T12:00:30.914Z,1.87
2018-11-26T12:02:59.721Z,1.90
2018-11-26T12:05:27.870Z,2.83
2018-11-26T12:07:55.952Z,1.70
2018-11-26T12:10:24.035Z,1.40
2018-11-26T12:12:52.127Z,2.67
2018-11-26T12:15:20.423Z,1.83
2018-11-26T12:17:49.306Z,1.55
2018-11-26T12:20:17.423Z,2.35
2018-11-26T12:22:45.775Z,2.08
2018-11-26T12:25:16.996Z,1.80
2018-11-26T12:27:45.113Z,1.73
2018-11-26T12:30:19.336Z,1.70
2018-11-26T12:32:47.435Z,1.63
2018-11-26T12:35:15.599Z,1.13
2018-11-26T12:37:43.707Z,1.53
2018-11-26T12:40:14.047Z,1.40
2018-11-26T12:42:42.175Z,1.57
2018-11-26T12:45:27.412Z,0.93
2018-11-26T12:47:55.505Z,1.25
2018-11-26T12:50:23.681Z,1.60
2018-11-26T12:55:26.601Z,1.20
2018-11-26T12:57:55.563Z,1.63
2018-11-26T13:00:25.657Z,1.90
2018-11-26T13:02:54.930Z,1.73
2018-11-26T13:05:23.182Z,3.15
2018-11-26T13:07:51.344Z,1.97
2018-11-26T13:10:20.893Z,2.60
2018-11-26T13:12:49.671Z,1.57
2018-11-26T13:15:18.814Z,1.70
2018-11-26T13:17:46.955Z,2.53
2018-11-26T13:20:18.086Z,1.60
2018-11-26T13:22:46.187Z,2.80
2018-11-26T13:25:16.505Z,1.87
2018-11-26T13:27:46.227Z,1.47
2018-11-26T13:30:16.647Z,1.40
2018-11-26T13:32:46.178Z,1.92
2018-11-26T13:35:15.053Z,2.50
2018-11-26T13:37:43.131Z,1.90
2018-11-26T13:40:15.291Z,1.98
2018-11-26T13:42:43.475Z,2.20
2018-11-26T13:45:17.851Z,1.80
2018-11-26T13:47:46.004Z,74.67
2018-11-26T13:50:18.139Z,7.60
2018-11-26T13:52:46.251Z,75.70
2018-11-26T13:55:14.354Z,1.43
2018-11-26T13:57:42.440Z,2.93
2018-11-26T14:00:13.648Z,1.73
2018-11-26T14:02:41.827Z,2.60
2018-11-26T14:05:11.103Z,2.80
2018-11-26T14:07:39.251Z,2.83
2018-11-26T14:10:12.958Z,5.07
2018-11-26T14:12:42.328Z,3.60
2018-11-26T14:15:12.237Z,3.70
2018-11-26T14:17:40.403Z,2.17
2018-11-26T14:20:11.760Z,1.90
2018-11-26T14:22:39.943Z,2.60
2018-11-26T14:25:10.451Z,7.22
2018-11-26T14:27:38.567Z,2.47
2018-11-26T14:30:09.696Z,3.03
2018-11-26T14:32:37.797Z,1.77
2018-11-26T14:35:07.155Z,1.53
2018-11-26T14:37:35.248Z,2.77
2018-11-26T14:40:03.332Z,1.63
2018-11-26T14:42:31.413Z,2.23
2018-11-26T14:44:59.508Z,4.77
2018-11-26T14:47:27.612Z,2.40
2018-11-26T14:49:56.540Z,5.23
2018-11-26T14:52:24.696Z,2.80
2018-11-26T14:54:52.851Z,4.40
2018-11-26T14:57:20.927Z,2.62
2018-11-26T14:59:49.011Z,2.58
2018-11-26T15:02:17.085Z,2.67
2018-11-26T15:04:45.215Z,2.97
2018-11-26T15:07:13.330Z,3.33
2018-11-26T15:09:41.482Z,2.53
2018-11-26T15:12:09.596Z,2.10
2018-11-26T15:14:37.724Z,4.00
2018-11-26T15:17:05.825Z,3.10
2018-11-26T15:19:33.948Z,3.40
2018-11-26T15:22:02.043Z,3.53
2018-11-26T15:24:30.157Z,2.80
2018-11-26T15:26:58.252Z,2.10
2018-11-26T15:29:26.323Z,3.67
2018-11-26T15:34:18.907Z,3.40
2018-11-26T15:36:47.071Z,7.63
2018-11-26T15:39:15.190Z,4.80
2018-11-26T15:41:43.337Z,3.43
2018-11-26T15:44:11.475Z,5.80
2018-11-26T15:46:39.583Z,3.43
2018-11-26T15:49:07.679Z,3.60
2018-11-26T15:51:35.783Z,3.43
2018-11-26T15:54:03.872Z,2.37
2018-11-26T15:56:31.959Z,4.03
2018-11-26T15:59:00.086Z,3.23
2018-11-26T16:01:28.192Z,5.90
2018-11-26T16:03:56.300Z,10.60
2018-11-26T16:06:24.432Z,3.10
2018-11-26T16:08:52.528Z,4.73
2018-11-26T16:11:20.608Z,2.87
2018-11-26T16:13:48.721Z,4.42
2018-11-26T16:16:17.449Z,6.10
2018-11-26T16:18:52.159Z,5.33
2018-11-26T16:21:23.072Z,4.85
2018-11-26T16:23:51.387Z,2.40
2018-11-26T16:26:19.476Z,3.50
2018-11-26T16:28:47.603Z,3.87
2018-11-26T16:31:15.723Z,3.13
2018-11-26T16:33:43.812Z,4.33
2018-11-26T16:36:11.995Z,3.00
2018-11-26T16:38:40.082Z,4.17
2018-11-26T16:41:08.139Z,3.50
2018-11-26T16:43:36.256Z,7.40
2018-11-26T16:46:04.444Z,3.20
2018-11-26T16:48:32.545Z,3.37
2018-11-26T16:51:00.648Z,2.75
2018-11-26T16:53:28.781Z,6.57
2018-11-26T16:55:56.915Z,2.70
2018-11-26T16:58:25.064Z,4.87
2018-11-26T17:00:53.170Z,11.85
2018-11-26T17:03:21.417Z,5.33
2018-11-26T17:05:49.531Z,3.00
2018-11-26T17:08:17.652Z,4.83
2018-11-26T17:10:45.733Z,3.50
2018-11-26T17:13:14.524Z,2.40
2018-11-26T17:15:42.739Z,2.80
2018-11-26T17:18:10.865Z,3.25
2018-11-26T17:20:39.010Z,3.50
2018-11-26T17:23:07.810Z,7.67
2018-11-26T17:25:36.050Z,3.83
2018-11-26T17:28:04.298Z,2.97
2018-11-26T17:30:32.476Z,5.93
2018-11-26T17:33:02.279Z,7.90
2018-11-26T17:35:31.003Z,6.90
2018-11-26T17:37:59.270Z,8.63
2018-11-26T17:40:27.660Z,13.37
2018-11-26T17:42:56.179Z,15.60
2018-11-26T17:45:25.127Z,15.70
2018-11-26T17:47:58.491Z,32.53
2018-11-26T17:50:35.193Z,30.35
2018-11-26T17:53:03.403Z,23.10
2018-11-26T17:55:31.559Z,20.13
2018-11-26T17:57:59.748Z,20.13
2018-11-26T18:00:30.236Z,10.50
2018-11-26T18:02:58.392Z,22.37
2018-11-26T18:05:27.954Z,12.27
2018-11-26T18:07:58.916Z,10.50
2018-11-26T18:10:27.075Z,9.50
2018-11-26T18:12:55.264Z,8.40
2018-11-26T18:15:23.565Z,9.13
2018-11-26T18:17:51.755Z,9.70
2018-11-26T18:20:20.992Z,8.37
2018-11-26T18:22:50.642Z,8.57
2018-11-26T18:25:19.386Z,9.27
2018-11-26T18:27:59.502Z,11.00
2018-11-26T18:30:35.179Z,7.03
2018-11-26T18:33:03.325Z,6.80
2018-11-26T18:35:31.455Z,6.73
2018-11-26T18:37:59.613Z,8.40
2018-11-26T18:40:27.715Z,8.03
2018-11-26T18:42:55.821Z,6.33
2018-11-26T18:45:23.964Z,7.97
2018-11-26T18:47:52.126Z,6.30
2018-11-26T18:50:21.388Z,6.90
2018-11-26T18:52:50.685Z,5.73
2018-11-26T18:55:19.069Z,6.95
2018-11-26T18:57:47.222Z,6.00
2018-11-26T19:00:25.483Z,5.70
2018-11-26T19:02:54.323Z,5.10
2018-11-26T19:05:22.552Z,5.07
2018-11-26T19:07:51.069Z,4.43
2018-11-26T19:10:27.021Z,4.67
2018-11-26T19:13:04.717Z,4.67
2018-11-26T19:15:34.555Z,4.87
2018-11-26T19:18:08.548Z,3.60
2018-11-26T19:20:36.667Z,4.10
2018-11-26T19:23:05.023Z,4.50
2018-11-26T19:25:33.118Z,5.43
2018-11-26T19:28:01.235Z,3.90
2018-11-26T19:30:29.337Z,4.63
2018-11-26T19:32:57.429Z,3.90
2018-11-26T19:35:25.567Z,5.77
2018-11-26T19:37:53.670Z,4.35
2018-11-26T19:40:21.781Z,4.58
2018-11-26T19:42:49.902Z,4.45
2018-11-26T19:45:19.338Z,5.75
2018-11-26T19:47:47.521Z,4.92
2018-11-26T19:50:16.636Z,5.23
2018-11-26T19:52:45.538Z,4.67
2018-11-26T19:55:16.059Z,4.58
2018-11-26T19:57:44.167Z,4.93
2018-11-26T20:00:17.731Z,5.30
2018-11-26T20:02:47.528Z,4.53
2018-11-26T20:05:36.112Z,4.67
2018-11-26T20:08:04.236Z,4.70
2018-11-26T20:10:32.400Z,5.03
2018-11-26T20:13:00.582Z,4.40
2018-11-26T20:15:28.692Z,4.92
2018-11-26T20:17:59.102Z,5.50
2018-11-26T20:20:24.905Z,6.53
2018-11-26T20:22:53.801Z,5.47
2018-11-26T20:25:21.180Z,5.35
2018-11-26T20:27:49.287Z,4.90
2018-11-26T20:30:17.502Z,4.60
2018-11-26T20:32:47.130Z,4.47
2018-11-26T20:35:15.362Z,4.87
2018-11-26T20:37:43.536Z,5.50
2018-11-26T20:40:13.071Z,5.07
2018-11-26T20:42:47.172Z,4.72
2018-11-26T20:45:16.307Z,5.10
2018-11-26T20:47:45.373Z,5.80
2018-11-26T20:50:18.275Z,5.60
2018-11-26T20:52:46.387Z,7.23
2018-11-26T20:55:16.993Z,6.57
2018-11-26T20:57:45.135Z,6.03
2018-11-26T21:00:16.537Z,5.95
2018-11-26T21:02:45.212Z,6.62
2018-11-26T21:05:13.375Z,6.22
2018-11-26T21:07:41.530Z,6.58
2018-11-26T21:10:11.786Z,6.28
2018-11-26T21:12:39.947Z,6.23
2018-11-26T21:15:14.482Z,7.67
2018-11-26T21:17:43.897Z,9.10
2018-11-26T21:20:13.904Z,7.90
2018-11-26T21:22:42.024Z,9.03
2018-11-26T21:25:12.108Z,10.07
2018-11-26T21:27:40.224Z,10.30
2018-11-26T21:30:14.494Z,7.80
2018-11-26T21:32:42.595Z,9.20
2018-11-26T21:35:11.695Z,11.37
2018-11-26T21:37:40.786Z,8.33
2018-11-26T21:40:10.113Z,14.10
2018-11-26T21:42:38.204Z,9.50
2018-11-26T21:45:09.631Z,11.50
2018-11-26T21:47:37.759Z,8.73
2018-11-26T21:50:10.280Z,7.45
2018-11-26T21:52:38.404Z,7.73
2018-11-26T21:55:08.888Z,8.13
2018-11-26T21:57:37.051Z,9.90
2018-11-26T22:00:14.146Z,9.03
2018-11-26T22:02:42.255Z,7.70
2018-11-26T22:05:10.712Z,11.60
2018-11-26T22:07:38.824Z,8.87
2018-11-26T22:10:09.648Z,7.93
2018-11-26T22:12:37.756Z,10.90
2018-11-26T22:15:09.359Z,8.90
2018-11-26T22:17:38.052Z,9.78
2018-11-26T22:20:11.183Z,8.45
2018-11-26T22:22:39.288Z,9.73
2018-11-26T22:25:08.763Z,9.43
2018-11-26T22:27:36.895Z,10.03
2018-11-26T22:30:10.302Z,6.97
2018-11-26T22:32:38.403Z,6.03
2018-11-26T22:35:06.987Z,7.63
2018-11-26T22:37:35.079Z,7.40
2018-11-26T22:40:03.211Z,9.17
2018-11-26T22:42:31.344Z,7.73
2018-11-26T22:44:59.477Z,7.30
2018-11-26T22:47:27.587Z,9.90
2018-11-26T22:49:55.679Z,9.80
2018-11-26T22:52:23.783Z,7.10
2018-11-26T22:54:51.859Z,8.23
2018-11-26T22:57:19.971Z,10.07
2018-11-26T22:59:48.071Z,7.87
2018-11-26T23:02:16.203Z,9.07
2018-11-26T23:04:44.291Z,10.48
2018-11-26T23:07:12.485Z,10.60
2018-11-26T23:09:40.567Z,9.17
2018-11-26T23:12:08.678Z,12.97
2018-11-26T23:14:36.811Z,7.93
2018-11-26T23:17:04.983Z,10.77
2018-11-26T23:19:33.103Z,9.10
2018-11-26T23:22:01.185Z,8.13
2018-11-26T23:24:29.290Z,8.60
2018-11-26T23:26:57.407Z,9.43
2018-11-26T23:29:25.498Z,8.97
2018-11-26T23:31:53.615Z,8.30
2018-11-26T23:34:21.716Z,9.00
2018-11-26T23:36:49.833Z,10.10
2018-11-26T23:39:17.959Z,11.80
2018-11-26T23:41:46.087Z,8.97
2018-11-26T23:44:14.202Z,8.50
2018-11-26T23:46:42.319Z,10.90
2018-11-26T23:49:10.415Z,9.47
2018-11-26T23:51:38.523Z,10.27
2018-11-26T23:54:06.636Z,10.20
2018-11-26T23:56:34.763Z,8.87
2018-11-26T23:59:02.887Z,9.55
